sensor_id;sensor_type;location;lat;lon;timestamp;pressure;altitude;pressure_sealevel;temperature;humidity
54172;BME280;40076;52.354;4.970;2023-07-09T00:00:11;101698.81;;;26.22;80.46
54172;BME280;40076;52.354;4.970;2023-07-09T00:02:39;101698.81;;;26.22;79.79
54172;BME280;40076;52.354;4.970;2023-07-09T00:05:05;101696.50;;;26.13;78.77
54172;BME280;40076;52.354;4.970;2023-07-09T00:07:31;101698.13;;;26.03;78.59
54172;BME280;40076;52.354;4.970;2023-07-09T00:09:58;101700.53;;;25.98;78.81
54172;BME280;40076;52.354;4.970;2023-07-09T00:12:24;101704.88;;;25.99;78.60
54172;BME280;40076;52.354;4.970;2023-07-09T00:14:50;101700.53;;;26.01;78.38
54172;BME280;40076;52.354;4.970;2023-07-09T00:17:25;101710.78;;;26.04;78.46
54172;BME280;40076;52.354;4.970;2023-07-09T00:19:51;101712.38;;;26.05;78.45
54172;BME280;40076;52.354;4.970;2023-07-09T00:22:33;101715.13;;;26.05;78.10
54172;BME280;40076;52.354;4.970;2023-07-09T00:24:59;101715.94;;;26.06;77.87
54172;BME280;40076;52.354;4.970;2023-07-09T00:27:35;101708.81;;;26.05;77.39
54172;BME280;40076;52.354;4.970;2023-07-09T00:30:00;101717.91;;;26.05;77.05
54172;BME280;40076;52.354;4.970;2023-07-09T00:32:25;101718.28;;;26.07;77.03
54172;BME280;40076;52.354;4.970;2023-07-09T00:34:52;101720.28;;;26.07;76.77
54172;BME280;40076;52.354;4.970;2023-07-09T00:37:21;101715.94;;;26.06;76.55
54172;BME280;40076;52.354;4.970;2023-07-09T00:39:51;101719.88;;;26.05;76.54
54172;BME280;40076;52.354;4.970;2023-07-09T00:42:21;101723.06;;;26.03;76.30
54172;BME280;40076;52.354;4.970;2023-07-09T00:44:54;101720.28;;;26.03;75.94
54172;BME280;40076;52.354;4.970;2023-07-09T00:47:44;101726.59;;;26.04;76.09
54172;BME280;40076;52.354;4.970;2023-07-09T00:50:31;101727.00;;;26.02;75.71
54172;BME280;40076;52.354;4.970;2023-07-09T00:53:20;101731.75;;;26.02;75.89
54172;BME280;40076;52.354;4.970;2023-07-09T00:55:50;101741.28;;;25.97;75.81
54172;BME280;40076;52.354;4.970;2023-07-09T00:58:20;101733.75;;;25.98;75.75
54172;BME280;40076;52.354;4.970;2023-07-09T01:00:50;101740.88;;;25.95;76.17
54172;BME280;40076;52.354;4.970;2023-07-09T01:05:57;101737.75;;;25.93;75.77
54172;BME280;40076;52.354;4.970;2023-07-09T01:08:24;101738.16;;;25.92;75.79
54172;BME280;40076;52.354;4.970;2023-07-09T01:14:13;101733.81;;;25.84;75.73
54172;BME280;40076;52.354;4.970;2023-07-09T01:16:50;101735.00;;;25.83;75.64
54172;BME280;40076;52.354;4.970;2023-07-09T01:19:38;101728.28;;;25.80;75.74
54172;BME280;40076;52.354;4.970;2023-07-09T01:22:12;101733.47;;;25.78;75.58
54172;BME280;40076;52.354;4.970;2023-07-09T01:24:55;101731.47;;;25.75;75.30
54172;BME280;40076;52.354;4.970;2023-07-09T01:27:26;101724.38;;;25.74;75.53
54172;BME280;40076;52.354;4.970;2023-07-09T01:29:54;101734.69;;;25.70;75.52
54172;BME280;40076;52.354;4.970;2023-07-09T01:32:20;101736.22;;;25.71;75.47
54172;BME280;40076;52.354;4.970;2023-07-09T01:34:48;101733.88;;;25.69;75.37
54172;BME280;40076;52.354;4.970;2023-07-09T01:37:18;101726.75;;;25.68;75.42
54172;BME280;40076;52.354;4.970;2023-07-09T01:39:43;101723.59;;;25.66;75.37
54172;BME280;40076;52.354;4.970;2023-07-09T01:42:09;101728.75;;;25.64;75.57
54172;BME280;40076;52.354;4.970;2023-07-09T01:44:35;101736.28;;;25.60;75.50
54172;BME280;40076;52.354;4.970;2023-07-09T01:47:02;101736.66;;;25.59;76.05
54172;BME280;40076;52.354;4.970;2023-07-09T01:49:29;101738.66;;;25.55;76.06
54172;BME280;40076;52.354;4.970;2023-07-09T01:51:59;101740.63;;;25.51;76.27
54172;BME280;40076;52.354;4.970;2023-07-09T01:54:30;101742.97;;;25.49;76.30
54172;BME280;40076;52.354;4.970;2023-07-09T02:00:17;101743.00;;;25.45;76.05
54172;BME280;40076;52.354;4.970;2023-07-09T02:02:44;101743.41;;;25.44;76.36
54172;BME280;40076;52.354;4.970;2023-07-09T02:05:14;101745.75;;;25.42;76.00
54172;BME280;40076;52.354;4.970;2023-07-09T02:07:40;101741.03;;;25.38;76.25
54172;BME280;40076;52.354;4.970;2023-07-09T02:10:06;101732.75;;;25.35;76.44
54172;BME280;40076;52.354;4.970;2023-07-09T02:12:32;101739.47;;;25.34;76.27
54172;BME280;40076;52.354;4.970;2023-07-09T02:14:57;101742.22;;;25.34;76.30
54172;BME280;40076;52.354;4.970;2023-07-09T02:17:25;101746.97;;;25.33;76.39
54172;BME280;40076;52.354;4.970;2023-07-09T02:19:51;101748.94;;;25.33;76.98
54172;BME280;40076;52.354;4.970;2023-07-09T02:22:17;101747.38;;;25.32;77.49
54172;BME280;40076;52.354;4.970;2023-07-09T02:24:44;101740.66;;;25.29;77.95
54172;BME280;40076;52.354;4.970;2023-07-09T02:27:10;101745.78;;;25.27;77.90
54172;BME280;40076;52.354;4.970;2023-07-09T02:29:36;101744.63;;;25.25;78.38
54172;BME280;40076;52.354;4.970;2023-07-09T02:32:03;101746.22;;;25.22;78.61
54172;BME280;40076;52.354;4.970;2023-07-09T02:34:29;101746.59;;;25.21;78.75
54172;BME280;40076;52.354;4.970;2023-07-09T02:36:59;101752.91;;;25.18;78.84
54172;BME280;40076;52.354;4.970;2023-07-09T02:39:25;101745.81;;;25.17;78.79
54172;BME280;40076;52.354;4.970;2023-07-09T02:41:50;101746.22;;;25.15;78.99
54172;BME280;40076;52.354;4.970;2023-07-09T02:44:16;101740.31;;;25.10;79.37
54172;BME280;40076;52.354;4.970;2023-07-09T02:46:42;101746.22;;;25.05;79.47
54172;BME280;40076;52.354;4.970;2023-07-09T02:49:10;101748.56;;;25.03;79.60
54172;BME280;40076;52.354;4.970;2023-07-09T02:51:36;101745.44;;;25.01;79.98
54172;BME280;40076;52.354;4.970;2023-07-09T02:54:02;101745.81;;;24.99;80.56
54172;BME280;40076;52.354;4.970;2023-07-09T02:56:46;101746.59;;;24.96;80.62
54172;BME280;40076;52.354;4.970;2023-07-09T02:59:12;101735.97;;;24.94;80.87
54172;BME280;40076;52.354;4.970;2023-07-09T03:01:38;101741.88;;;24.93;81.13
54172;BME280;40076;52.354;4.970;2023-07-09T03:04:11;101744.59;;;24.89;81.17
54172;BME280;40076;52.354;4.970;2023-07-09T03:06:36;101753.28;;;24.88;81.17
54172;BME280;40076;52.354;4.970;2023-07-09T03:09:04;101747.38;;;24.86;81.08
54172;BME280;40076;52.354;4.970;2023-07-09T03:11:31;101751.31;;;24.85;81.23
54172;BME280;40076;52.354;4.970;2023-07-09T03:14:25;101752.50;;;24.84;81.14
54172;BME280;40076;52.354;4.970;2023-07-09T03:16:51;101745.78;;;24.81;81.40
54172;BME280;40076;52.354;4.970;2023-07-09T03:19:20;101743.41;;;24.80;81.30
54172;BME280;40076;52.354;4.970;2023-07-09T03:21:46;101749.72;;;24.77;81.44
54172;BME280;40076;52.354;4.970;2023-07-09T03:24:11;101754.84;;;24.75;81.57
54172;BME280;40076;52.354;4.970;2023-07-09T03:26:40;101750.91;;;24.72;81.48
54172;BME280;40076;52.354;4.970;2023-07-09T03:29:07;101741.06;;;24.71;81.41
54172;BME280;40076;52.354;4.970;2023-07-09T03:31:33;101746.97;;;24.70;81.78
54172;BME280;40076;52.354;4.970;2023-07-09T03:37:06;101748.53;;;24.64;82.03
54172;BME280;40076;52.354;4.970;2023-07-09T03:42:40;101752.88;;;24.61;82.65
54172;BME280;40076;52.354;4.970;2023-07-09T03:45:06;101758.78;;;24.59;83.32
54172;BME280;40076;52.354;4.970;2023-07-09T03:47:31;101754.03;;;24.56;83.58
54172;BME280;40076;52.354;4.970;2023-07-09T03:49:57;101760.75;;;24.55;84.21
54172;BME280;40076;52.354;4.970;2023-07-09T03:52:24;101757.59;;;24.53;84.44
54172;BME280;40076;52.354;4.970;2023-07-09T03:54:52;101762.72;;;24.51;85.15
54172;BME280;40076;52.354;4.970;2023-07-09T03:57:17;101769.03;;;24.48;85.49
54172;BME280;40076;52.354;4.970;2023-07-09T04:00:04;101770.59;;;24.46;85.49
54172;BME280;40076;52.354;4.970;2023-07-09T04:02:29;101769.41;;;24.43;85.94
54172;BME280;40076;52.354;4.970;2023-07-09T04:04:58;101763.09;;;24.39;85.95
54172;BME280;40076;52.354;4.970;2023-07-09T04:07:24;101776.88;;;24.36;85.83
54172;BME280;40076;52.354;4.970;2023-07-09T04:09:49;101777.25;;;24.34;86.29
54172;BME280;40076;52.354;4.970;2023-07-09T04:12:18;101773.72;;;24.34;87.17
54172;BME280;40076;52.354;4.970;2023-07-09T04:14:45;101787.94;;;24.32;87.86
54172;BME280;40076;52.354;4.970;2023-07-09T04:17:11;101785.16;;;24.32;88.12
54172;BME280;40076;52.354;4.970;2023-07-09T04:19:55;101788.69;;;24.29;88.40
54172;BME280;40076;52.354;4.970;2023-07-09T04:22:21;101778.03;;;24.28;89.28
54172;BME280;40076;52.354;4.970;2023-07-09T04:27:49;101791.84;;;24.24;89.65
54172;BME280;40076;52.354;4.970;2023-07-09T04:33:37;101788.25;;;24.20;90.18
54172;BME280;40076;52.354;4.970;2023-07-09T04:36:02;101787.84;;;24.18;90.83
54172;BME280;40076;52.354;4.970;2023-07-09T04:38:27;101783.88;;;24.15;90.96
54172;BME280;40076;52.354;4.970;2023-07-09T04:40:53;101780.34;;;24.15;91.15
54172;BME280;40076;52.354;4.970;2023-07-09T04:43:18;101781.91;;;24.12;91.18
54172;BME280;40076;52.354;4.970;2023-07-09T04:45:44;101779.13;;;24.12;91.23
54172;BME280;40076;52.354;4.970;2023-07-09T04:48:09;101781.09;;;24.12;91.26
54172;BME280;40076;52.354;4.970;2023-07-09T04:50:35;101784.66;;;24.12;91.65
54172;BME280;40076;52.354;4.970;2023-07-09T04:53:00;101789.78;;;24.14;91.77
54172;BME280;40076;52.354;4.970;2023-07-09T04:55:26;101786.25;;;24.13;91.98
54172;BME280;40076;52.354;4.970;2023-07-09T04:57:52;101782.31;;;24.14;92.37
54172;BME280;40076;52.354;4.970;2023-07-09T05:00:18;101794.16;;;24.15;92.46
54172;BME280;40076;52.354;4.970;2023-07-09T05:02:44;101791.00;;;24.16;92.59
54172;BME280;40076;52.354;4.970;2023-07-09T05:05:09;101792.97;;;24.16;92.71
54172;BME280;40076;52.354;4.970;2023-07-09T05:07:58;101790.22;;;24.16;93.09
54172;BME280;40076;52.354;4.970;2023-07-09T05:10:23;101790.22;;;24.16;93.10
54172;BME280;40076;52.354;4.970;2023-07-09T05:12:54;101783.09;;;24.15;93.16
54172;BME280;40076;52.354;4.970;2023-07-09T05:15:21;101781.91;;;24.16;93.77
54172;BME280;40076;52.354;4.970;2023-07-09T05:17:47;101785.09;;;24.18;93.47
54172;BME280;40076;52.354;4.970;2023-07-09T05:20:14;101791.03;;;24.20;93.52
54172;BME280;40076;52.354;4.970;2023-07-09T05:25:43;101787.50;;;24.27;92.86
54172;BME280;40076;52.354;4.970;2023-07-09T05:28:08;101787.09;;;24.21;94.06
54172;BME280;40076;52.354;4.970;2023-07-09T05:30:34;101779.97;;;24.20;95.11
54172;BME280;40076;52.354;4.970;2023-07-09T05:33:05;101783.16;;;24.22;95.61
54172;BME280;40076;52.354;4.970;2023-07-09T05:35:30;101780.81;;;24.24;95.98
54172;BME280;40076;52.354;4.970;2023-07-09T05:41:08;101774.09;;;24.29;96.85
54172;BME280;40076;52.354;4.970;2023-07-09T05:43:34;101766.22;;;24.31;97.41
54172;BME280;40076;52.354;4.970;2023-07-09T05:46:01;101781.22;;;24.33;97.20
54172;BME280;40076;52.354;4.970;2023-07-09T05:48:41;101781.63;;;24.39;96.95
54172;BME280;40076;52.354;4.970;2023-07-09T05:51:07;101790.31;;;24.44;96.74
54172;BME280;40076;52.354;4.970;2023-07-09T05:56:36;101788.38;;;24.52;96.04
54172;BME280;40076;52.354;4.970;2023-07-09T05:59:02;101788.41;;;24.55;96.22
54172;BME280;40076;52.354;4.970;2023-07-09T06:01:27;101787.22;;;24.60;96.51
54172;BME280;40076;52.354;4.970;2023-07-09T06:03:53;101784.84;;;24.66;96.48
54172;BME280;40076;52.354;4.970;2023-07-09T06:06:20;101787.25;;;24.71;95.56
54172;BME280;40076;52.354;4.970;2023-07-09T06:08:47;101797.91;;;24.76;95.30
54172;BME280;40076;52.354;4.970;2023-07-09T06:11:13;101795.91;;;24.80;94.48
54172;BME280;40076;52.354;4.970;2023-07-09T06:13:39;101790.03;;;24.85;93.72
54172;BME280;40076;52.354;4.970;2023-07-09T06:16:15;101798.34;;;24.92;93.39
54172;BME280;40076;52.354;4.970;2023-07-09T06:18:45;101801.91;;;24.96;93.22
54172;BME280;40076;52.354;4.970;2023-07-09T06:21:10;101807.84;;;25.02;92.86
54172;BME280;40076;52.354;4.970;2023-07-09T06:23:38;101818.09;;;25.05;92.73
54172;BME280;40076;52.354;4.970;2023-07-09T06:26:03;101820.50;;;25.10;92.64
54172;BME280;40076;52.354;4.970;2023-07-09T06:28:32;101827.59;;;25.14;92.43
54172;BME280;40076;52.354;4.970;2023-07-09T06:30:57;101829.16;;;25.19;92.18
54172;BME280;40076;52.354;4.970;2023-07-09T06:33:24;101832.75;;;25.23;91.92
54172;BME280;40076;52.354;4.970;2023-07-09T06:35:54;101832.72;;;25.26;91.92
54172;BME280;40076;52.354;4.970;2023-07-09T06:38:20;101834.31;;;25.31;91.73
54172;BME280;40076;52.354;4.970;2023-07-09T06:40:46;101835.91;;;25.35;91.50
54172;BME280;40076;52.354;4.970;2023-07-09T06:43:20;101840.25;;;25.40;91.26
54172;BME280;40076;52.354;4.970;2023-07-09T06:45:56;101833.13;;;25.43;89.87
54172;BME280;40076;52.354;4.970;2023-07-09T06:48:29;101838.66;;;25.46;89.04
54172;BME280;40076;52.354;4.970;2023-07-09T06:50:57;101851.31;;;25.51;89.34
54172;BME280;40076;52.354;4.970;2023-07-09T06:53:24;101847.38;;;25.55;89.33
54172;BME280;40076;52.354;4.970;2023-07-09T06:55:59;101841.44;;;25.60;88.89
54172;BME280;40076;52.354;4.970;2023-07-09T06:58:33;101840.25;;;25.65;87.97
54172;BME280;40076;52.354;4.970;2023-07-09T07:01:03;101839.47;;;25.68;88.13
54172;BME280;40076;52.354;4.970;2023-07-09T07:03:33;101840.66;;;25.70;87.11
54172;BME280;40076;52.354;4.970;2023-07-09T07:06:01;101842.22;;;25.75;86.96
54172;BME280;40076;52.354;4.970;2023-07-09T07:08:41;101847.34;;;25.80;85.82
54172;BME280;40076;52.354;4.970;2023-07-09T07:11:06;101847.72;;;25.82;83.92
54172;BME280;40076;52.354;4.970;2023-07-09T07:13:37;101863.97;;;25.84;82.10
54172;BME280;40076;52.354;4.970;2023-07-09T07:16:12;101860.78;;;25.85;81.08
54172;BME280;40076;52.354;4.970;2023-07-09T07:18:38;101870.25;;;25.88;80.80
54172;BME280;40076;52.354;4.970;2023-07-09T07:21:07;101878.19;;;25.89;79.83
54172;BME280;40076;52.354;4.970;2023-07-09T07:23:33;101886.47;;;25.89;78.36
54172;BME280;40076;52.354;4.970;2023-07-09T07:26:01;101870.25;;;25.88;76.70
54172;BME280;40076;52.354;4.970;2023-07-09T07:28:30;101885.28;;;25.87;75.48
54172;BME280;40076;52.354;4.970;2023-07-09T07:31:14;101874.63;;;25.82;74.97
54172;BME280;40076;52.354;4.970;2023-07-09T07:33:42;101875.41;;;25.82;74.09
54172;BME280;40076;52.354;4.970;2023-07-09T07:36:11;101878.19;;;25.82;73.97
54172;BME280;40076;52.354;4.970;2023-07-09T07:38:37;101871.47;;;25.83;73.26
54172;BME280;40076;52.354;4.970;2023-07-09T07:41:03;101872.25;;;25.84;73.00
54172;BME280;40076;52.354;4.970;2023-07-09T07:43:28;101873.84;;;25.85;73.11
54172;BME280;40076;52.354;4.970;2023-07-09T07:46:14;101867.88;;;25.86;73.55
54172;BME280;40076;52.354;4.970;2023-07-09T07:52:35;101869.09;;;25.92;71.73
54172;BME280;40076;52.354;4.970;2023-07-09T07:55:11;101866.31;;;25.92;68.76
54172;BME280;40076;52.354;4.970;2023-07-09T08:05:12;101868.28;;;25.92;67.27
54172;BME280;40076;52.354;4.970;2023-07-09T08:18:19;101862.72;;;26.02;67.64
54172;BME280;40076;52.354;4.970;2023-07-09T08:20:47;101871.41;;;26.04;67.97
54172;BME280;40076;52.354;4.970;2023-07-09T08:23:13;101865.88;;;26.08;67.40
54172;BME280;40076;52.354;4.970;2023-07-09T08:25:38;101860.72;;;26.10;66.94
54172;BME280;40076;52.354;4.970;2023-07-09T08:28:04;101857.53;;;26.11;67.04
54172;BME280;40076;52.354;4.970;2023-07-09T08:30:29;101859.94;;;26.17;67.67
54172;BME280;40076;52.354;4.970;2023-07-09T08:32:55;101849.22;;;26.22;67.84
54172;BME280;40076;52.354;4.970;2023-07-09T08:35:22;101850.78;;;26.27;68.30
54172;BME280;40076;52.354;4.970;2023-07-09T08:37:48;101846.84;;;26.31;68.31
54172;BME280;40076;52.354;4.970;2023-07-09T08:40:15;101854.72;;;26.36;68.18
54172;BME280;40076;52.354;4.970;2023-07-09T08:42:46;101848.38;;;26.39;68.08
54172;BME280;40076;52.354;4.970;2023-07-09T08:45:36;101844.78;;;26.42;68.83
54172;BME280;40076;52.354;4.970;2023-07-09T08:48:15;101841.59;;;26.47;68.69
54172;BME280;40076;52.354;4.970;2023-07-09T08:50:47;101831.69;;;26.50;68.63
54172;BME280;40076;52.354;4.970;2023-07-09T08:53:19;101826.50;;;26.56;69.27
54172;BME280;40076;52.354;4.970;2023-07-09T08:55:48;101830.84;;;26.60;69.06
54172;BME280;40076;52.354;4.970;2023-07-09T08:58:27;101835.16;;;26.65;69.21
54172;BME280;40076;52.354;4.970;2023-07-09T09:00:59;101832.78;;;26.67;69.94
54172;BME280;40076;52.354;4.970;2023-07-09T09:03:52;101833.94;;;26.73;69.52
54172;BME280;40076;52.354;4.970;2023-07-09T09:06:28;101832.75;;;26.77;69.93
54172;BME280;40076;52.354;4.970;2023-07-09T09:09:26;101840.59;;;26.86;69.96
54172;BME280;40076;52.354;4.970;2023-07-09T09:12:01;101833.44;;;26.88;69.53
54172;BME280;40076;52.354;4.970;2023-07-09T09:14:34;101842.19;;;26.91;69.62
54172;BME280;40076;52.354;4.970;2023-07-09T09:17:02;101839.00;;;26.92;69.59
54172;BME280;40076;52.354;4.970;2023-07-09T09:19:33;101835.84;;;26.90;69.57
54172;BME280;40076;52.354;4.970;2023-07-09T09:22:09;101842.16;;;26.87;69.13
54172;BME280;40076;52.354;4.970;2023-07-09T09:25:02;101834.66;;;26.84;69.37
54172;BME280;40076;52.354;4.970;2023-07-09T09:27:24;101835.88;;;26.83;70.19
54172;BME280;40076;52.354;4.970;2023-07-09T09:29:50;101833.50;;;26.81;70.43
54172;BME280;40076;52.354;4.970;2023-07-09T09:32:27;101832.69;;;26.81;71.31
54172;BME280;40076;52.354;4.970;2023-07-09T09:34:54;101831.91;;;26.80;71.56
54172;BME280;40076;52.354;4.970;2023-07-09T09:37:27;101825.19;;;26.81;70.35
54172;BME280;40076;52.354;4.970;2023-07-09T09:39:54;101832.69;;;26.81;69.17
54172;BME280;40076;52.354;4.970;2023-07-09T09:42:20;101835.91;;;26.76;68.82
54172;BME280;40076;52.354;4.970;2023-07-09T09:44:48;101852.50;;;26.79;69.01
54172;BME280;40076;52.354;4.970;2023-07-09T09:47:14;101850.13;;;26.81;68.51
54172;BME280;40076;52.354;4.970;2023-07-09T09:49:41;101856.44;;;26.85;68.49
54172;BME280;40076;52.354;4.970;2023-07-09T09:52:13;101849.72;;;26.90;68.81
54172;BME280;40076;52.354;4.970;2023-07-09T09:54:51;101846.09;;;26.97;67.60
54172;BME280;40076;52.354;4.970;2023-07-09T09:57:19;101852.78;;;27.03;66.91
54172;BME280;40076;52.354;4.970;2023-07-09T09:59:46;101854.31;;;27.11;65.85
54172;BME280;40076;52.354;4.970;2023-07-09T10:02:20;101858.22;;;27.17;64.88
54172;BME280;40076;52.354;4.970;2023-07-09T10:04:46;101872.47;;;27.22;63.78
54172;BME280;40076;52.354;4.970;2023-07-09T10:07:27;101882.38;;;27.23;63.43
54172;BME280;40076;52.354;4.970;2023-07-09T10:09:55;101885.91;;;27.24;63.33
54172;BME280;40076;52.354;4.970;2023-07-09T10:15:27;101884.78;;;27.21;65.30
54172;BME280;40076;52.354;4.970;2023-07-09T10:20:32;101884.81;;;27.14;67.43
54172;BME280;40076;52.354;4.970;2023-07-09T10:29:21;101868.53;;;27.16;69.64
54172;BME280;40076;52.354;4.970;2023-07-09T10:32:30;101844.78;;;27.15;70.20
54172;BME280;40076;52.354;4.970;2023-07-09T11:21:13;101850.06;;;26.99;75.60
54172;BME280;40076;52.354;4.970;2023-07-09T11:29:46;101832.97;;;27.08;74.65
54172;BME280;40076;52.354;4.970;2023-07-09T11:32:21;101828.94;;;27.12;74.08
54172;BME280;40076;52.354;4.970;2023-07-09T11:34:50;101824.13;;;27.20;73.91
54172;BME280;40076;52.354;4.970;2023-07-09T11:37:31;101826.88;;;27.23;74.27
54172;BME280;40076;52.354;4.970;2023-07-09T11:40:17;101820.47;;;27.30;74.16
54172;BME280;40076;52.354;4.970;2023-07-09T11:43:03;101833.13;;;27.35;74.21
54172;BME280;40076;52.354;4.970;2023-07-09T11:45:55;101854.88;;;27.40;74.63
54172;BME280;40076;52.354;4.970;2023-07-09T11:48:27;101882.22;;;27.45;72.85
54172;BME280;40076;52.354;4.970;2023-07-09T11:50:55;101871.84;;;27.49;72.41
54172;BME280;40076;52.354;4.970;2023-07-09T11:53:52;101861.50;;;27.56;72.79
54172;BME280;40076;52.354;4.970;2023-07-09T11:56:28;101864.63;;;27.62;72.59
54172;BME280;40076;52.354;4.970;2023-07-09T11:59:15;101866.97;;;27.67;71.86
54172;BME280;40076;52.354;4.970;2023-07-09T12:01:45;101868.50;;;27.72;71.70
54172;BME280;40076;52.354;4.970;2023-07-09T12:04:34;101862.06;;;27.78;71.19
54172;BME280;40076;52.354;4.970;2023-07-09T12:07:01;101877.06;;;27.88;70.27
54172;BME280;40076;52.354;4.970;2023-07-09T12:09:39;101881.34;;;27.96;69.20
54172;BME280;40076;52.354;4.970;2023-07-09T12:12:22;101880.47;;;28.02;66.67
54172;BME280;40076;52.354;4.970;2023-07-09T12:14:49;101883.97;;;28.10;65.14
54172;BME280;40076;52.354;4.970;2023-07-09T12:17:17;101891.06;;;28.18;65.01
54172;BME280;40076;52.354;4.970;2023-07-09T12:19:43;101883.81;;;28.28;65.14
54172;BME280;40076;52.354;4.970;2023-07-09T12:22:36;101890.84;;;28.36;64.53
54172;BME280;40076;52.354;4.970;2023-07-09T12:25:00;101897.94;;;28.40;63.94
54172;BME280;40076;52.354;4.970;2023-07-09T12:27:31;101902.28;;;28.41;63.26
54172;BME280;40076;52.354;4.970;2023-07-09T12:30:09;101910.59;;;28.45;62.15
54172;BME280;40076;52.354;4.970;2023-07-09T12:32:43;101912.16;;;28.46;62.47
54172;BME280;40076;52.354;4.970;2023-07-09T12:35:13;101912.13;;;28.50;62.17
54172;BME280;40076;52.354;4.970;2023-07-09T12:37:46;101919.28;;;28.51;61.39
54172;BME280;40076;52.354;4.970;2023-07-09T12:40:21;101921.19;;;28.54;61.92
54172;BME280;40076;52.354;4.970;2023-07-09T12:42:47;101909.66;;;28.55;61.47
54172;BME280;40076;52.354;4.970;2023-07-09T12:45:40;101897.34;;;28.56;61.74
54172;BME280;40076;52.354;4.970;2023-07-09T12:48:25;101896.13;;;28.61;61.63
54172;BME280;40076;52.354;4.970;2023-07-09T12:50:56;101890.91;;;28.63;61.60
54172;BME280;40076;52.354;4.970;2023-07-09T12:53:36;101890.44;;;28.68;61.99
54172;BME280;40076;52.354;4.970;2023-07-09T12:59:39;101920.94;;;28.75;59.72
54172;BME280;40076;52.354;4.970;2023-07-09T13:02:25;101916.31;;;28.65;59.12
54172;BME280;40076;52.354;4.970;2023-07-09T13:05:06;101920.75;;;28.59;58.48
54172;BME280;40076;52.354;4.970;2023-07-09T13:07:39;101913.81;;;28.44;59.20
54172;BME280;40076;52.354;4.970;2023-07-09T13:10:25;101916.38;;;28.27;59.61
54172;BME280;40076;52.354;4.970;2023-07-09T13:12:59;101902.16;;;28.22;60.21
54172;BME280;40076;52.354;4.970;2023-07-09T13:15:40;101886.38;;;28.08;60.53
54172;BME280;40076;52.354;4.970;2023-07-09T13:18:10;101879.31;;;28.00;61.37
54172;BME280;40076;52.354;4.970;2023-07-09T13:20:43;101879.38;;;27.93;61.84
54172;BME280;40076;52.354;4.970;2023-07-09T13:23:15;101874.38;;;27.81;63.16
54172;BME280;40076;52.354;4.970;2023-07-09T13:25:41;101877.63;;;27.72;63.16
54172;BME280;40076;52.354;4.970;2023-07-09T13:28:17;101902.75;;;27.58;64.32
54172;BME280;40076;52.354;4.970;2023-07-09T13:30:43;101905.94;;;27.49;64.84
54172;BME280;40076;52.354;4.970;2023-07-09T13:33:09;101904.81;;;27.43;65.01
54172;BME280;40076;52.354;4.970;2023-07-09T13:35:36;101925.06;;;27.40;65.64
54172;BME280;40076;52.354;4.970;2023-07-09T13:38:12;101929.91;;;27.29;66.86
54172;BME280;40076;52.354;4.970;2023-07-09T13:40:42;101924.00;;;27.20;67.10
54172;BME280;40076;52.354;4.970;2023-07-09T13:43:15;101935.13;;;27.16;66.25
54172;BME280;40076;52.354;4.970;2023-07-09T13:45:41;101940.78;;;26.99;66.42
54172;BME280;40076;52.354;4.970;2023-07-09T13:48:14;101943.63;;;26.81;66.83
54172;BME280;40076;52.354;4.970;2023-07-09T13:50:42;101927.81;;;26.74;67.01
54172;BME280;40076;52.354;4.970;2023-07-09T13:53:17;101919.50;;;26.71;67.16
54172;BME280;40076;52.354;4.970;2023-07-09T13:55:43;101918.34;;;26.68;67.45
54172;BME280;40076;52.354;4.970;2023-07-09T13:58:10;101926.25;;;26.70;67.42
54172;BME280;40076;52.354;4.970;2023-07-09T14:00:36;101922.72;;;26.62;67.46
54172;BME280;40076;52.354;4.970;2023-07-09T14:03:02;101921.94;;;26.62;67.78
54172;BME280;40076;52.354;4.970;2023-07-09T14:05:28;101917.19;;;26.59;68.38
54172;BME280;40076;52.354;4.970;2023-07-09T14:07:53;101909.66;;;26.59;68.94
54172;BME280;40076;52.354;4.970;2023-07-09T14:10:19;101900.56;;;26.55;68.18
54172;BME280;40076;52.354;4.970;2023-07-09T14:12:46;101877.63;;;26.51;68.01
54172;BME280;40076;52.354;4.970;2023-07-09T14:15:15;101868.94;;;26.45;68.09
54172;BME280;40076;52.354;4.970;2023-07-09T14:17:41;101847.97;;;26.41;68.14
54172;BME280;40076;52.354;4.970;2023-07-09T14:20:10;101840.88;;;26.33;68.46
54172;BME280;40076;52.354;4.970;2023-07-09T14:22:37;101842.09;;;26.28;68.98
54172;BME280;40076;52.354;4.970;2023-07-09T14:25:04;101853.97;;;26.25;69.07
54172;BME280;40076;52.354;4.970;2023-07-09T14:27:30;101847.22;;;26.19;68.83
54172;BME280;40076;52.354;4.970;2023-07-09T14:29:56;101852.00;;;26.15;68.84
54172;BME280;40076;52.354;4.970;2023-07-09T14:32:36;101850.06;;;26.05;69.18
54172;BME280;40076;52.354;4.970;2023-07-09T14:35:04;101842.53;;;26.02;69.27
54172;BME280;40076;52.354;4.970;2023-07-09T14:37:34;101833.47;;;25.91;69.47
54172;BME280;40076;52.354;4.970;2023-07-09T14:40:00;101832.31;;;25.85;69.08
54172;BME280;40076;52.354;4.970;2023-07-09T14:42:25;101828.38;;;25.68;69.44
54172;BME280;40076;52.354;4.970;2023-07-09T14:44:51;101834.31;;;25.66;69.30
54172;BME280;40076;52.354;4.970;2023-07-09T14:47:19;101827.56;;;25.57;69.57
54172;BME280;40076;52.354;4.970;2023-07-09T14:49:46;101825.63;;;25.47;69.98
54172;BME280;40076;52.354;4.970;2023-07-09T14:52:14;101818.50;;;25.46;70.40
54172;BME280;40076;52.354;4.970;2023-07-09T14:54:43;101845.38;;;25.45;70.64
54172;BME280;40076;52.354;4.970;2023-07-09T14:57:18;101862.00;;;25.38;71.75
54172;BME280;40076;52.354;4.970;2023-07-09T14:59:47;101899.53;;;25.35;71.60
54172;BME280;40076;52.354;4.970;2023-07-09T15:02:23;101955.66;;;25.32;71.99
54172;BME280;40076;52.354;4.970;2023-07-09T15:04:50;102056.03;;;25.33;72.31
54172;BME280;40076;52.354;4.970;2023-07-09T15:07:16;102131.53;;;25.30;74.88